메인 페이지
METAR-TAF:

METAR-TAF

공항 :

애들레이드 공항

애들레이드, 오스트레일리아

위도: 34-56S, 경도: 138-31E, 고도: 6m

현재 날씨관측

예보는 39분 전, 15:00시(UTC)에 발표되었습니다.
무풍
온도 9°C
습도 81%
기압 1027 hPa
시정 10km 이상
1500m 미만 상공 구름 및 적란운 없음

METAR: YPAD 241500Z 00000KT CAVOK 09/06 Q1027 NOSIG

시각: 01:09 (15:39 UTC)

예보

예보는 4 시간 5분 전, 11:34시(UTC)에 발표되었습니다.
예보 대상 시간: 24일 12시부터 25일 18시까지 (UTC)
동남동6kt
시정 10km 이상
고도 3500ft 상공 구름 조금
24일 1800시부터 (UTC)
동북동5kt
시정 10km 이상
1500m 미만 상공 구름 및 적란운 없음
25일 0200시부터 (UTC)
북북동10kt
시정 10km 이상
1500m 미만 상공 구름 및 적란운 없음

TAF: YPAD 241134Z 2412/2518 11006KT 9999 FEW035 FM241800 06005KT CAVOK FM250200 03010KT CAVOK

4,000개 이상의 공항 관측 자료 및 예보 (METAR 및 TAF 보고).

지도상에서 검색 가능한 기상관측소가 노란 점과 빨간 점으로 표시되어 있습니다.

기상관측소 명을 보려면 표시 위로 마우스를 이동하세요.

날씨 관측과 예보를 보려면 클릭하세요.

지도 변경 : 확대하려면 엑스 표시가 있는 녹색 버튼, 축소하려면 빼기 표시가 있는 녹색 버튼, 다음 페이지의 지도를 보려면 녹색 화살표를 클릭하세요.


METAR-TAF: